Time;durP1;ratioP1;P1;durP2;ratioP2;P2;SDS_P1;SDS_P2;PMS_P1;PMS_P2;Temp;Humidity;BMP_temperature;BMP_pressure;BME280_temperature;BME280_humidity;BME280_pressure;Samples;Min_cycle;Max_cycle;Signal;HPM_P1;HPM_P2
2022/07/27 00:02:14;;;;;;;0.52;0.50;;;14.90;99.90;;;;;;5096213;28;20181;-60
2022/07/27 00:04:40;;;;;;;0.85;0.63;;;14.90;99.90;;;;;;5062365;28;20177;-60
2022/07/27 00:07:05;;;;;;;0.40;0.40;;;14.80;99.90;;;;;;5095977;28;20175;-59
2022/07/27 00:09:31;;;;;;;1.38;0.60;;;14.80;99.90;;;;;;5096143;28;20182;-60
2022/07/27 00:11:56;;;;;;;0.80;0.38;;;14.80;99.90;;;;;;5096057;28;20190;-60
2022/07/27 00:14:22;;;;;;;0.50;0.50;;;14.80;99.90;;;;;;5096036;28;20178;-59
2022/07/27 00:16:51;;;;;;;0.55;0.55;;;14.80;99.90;;;;;;5095750;28;20189;-60
2022/07/27 00:19:16;;;;;;;0.43;0.40;;;14.70;99.90;;;;;;5078240;28;20236;-59
2022/07/27 00:21:42;;;;;;;1.85;0.55;;;14.70;99.90;;;;;;5095721;28;20166;-60
2022/07/27 00:24:08;;;;;;;0.55;0.50;;;14.70;99.90;;;;;;5096226;28;20527;-60
2022/07/27 00:26:34;;;;;;;0.57;0.50;;;14.70;99.90;;;;;;5077707;28;20178;-60
2022/07/27 00:28:59;;;;;;;0.98;0.52;;;14.70;99.90;;;;;;5060940;28;20193;-60
2022/07/27 00:31:25;;;;;;;0.40;0.40;;;14.70;99.90;;;;;;5095631;28;20174;-59
2022/07/27 00:33:51;;;;;;;0.57;0.40;;;14.60;99.90;;;;;;5095619;28;20224;-59
2022/07/27 00:36:16;;;;;;;1.33;0.50;;;14.60;99.90;;;;;;5095335;28;20205;-59
2022/07/27 00:38:45;;;;;;;0.43;0.40;;;14.50;99.90;;;;;;5095595;28;20217;-59
2022/07/27 00:41:11;;;;;;;0.40;0.40;;;14.50;99.90;;;;;;5095371;28;20174;-59
2022/07/27 00:43:58;;;;;;;0.60;0.60;;;14.50;99.90;;;;;;5095284;28;20253;-59
2022/07/27 00:46:26;;;;;;;0.30;0.30;;;14.50;99.90;;;;;;5094984;28;20189;-59
2022/07/27 00:48:52;;;;;;;0.30;0.30;;;14.50;99.90;;;;;;5095459;28;20177;-60
2022/07/27 00:51:20;;;;;;;0.45;0.43;;;14.50;99.90;;;;;;5095288;28;20170;-59
2022/07/27 00:53:47;;;;;;;0.25;0.25;;;14.40;99.90;;;;;;5095118;28;20662;-59
2022/07/27 00:56:13;;;;;;;0.40;0.40;;;14.40;99.90;;;;;;5095223;28;20223;-60
2022/07/27 00:58:39;;;;;;;0.40;0.40;;;14.40;99.90;;;;;;5076896;28;20209;-59
2022/07/27 01:01:05;;;;;;;0.65;0.47;;;14.40;99.90;;;;;;5094959;28;20228;-59
2022/07/27 01:03:31;;;;;;;0.60;0.50;;;14.40;99.90;;;;;;5095114;28;20174;-60
2022/07/27 01:05:57;;;;;;;0.47;0.47;;;14.30;99.90;;;;;;5095081;28;20178;-60
2022/07/27 01:08:23;;;;;;;0.52;0.47;;;14.20;99.90;;;;;;5094892;28;20210;-60
2022/07/27 01:10:51;;;;;;;0.30;0.30;;;14.20;99.90;;;;;;5076839;28;20359;-60
2022/07/27 01:13:17;;;;;;;1.65;0.47;;;14.30;99.90;;;;;;5094751;28;20166;-60
2022/07/27 01:15:43;;;;;;;0.57;0.55;;;14.30;99.90;;;;;;5094651;28;20249;-60
2022/07/27 01:18:32;;;;;;;0.40;0.40;;;14.30;99.90;;;;;;5094574;28;20624;-60
2022/07/27 01:20:59;;;;;;;0.50;0.50;;;14.30;99.90;;;;;;5076613;28;20266;-60
2022/07/27 01:23:25;;;;;;;0.90;0.40;;;14.30;99.90;;;;;;5094578;28;20170;-60
2022/07/27 01:25:52;;;;;;;0.45;0.40;;;14.30;99.90;;;;;;5076658;28;20181;-60
2022/07/27 01:28:17;;;;;;;0.88;0.60;;;14.30;99.90;;;;;;5059805;28;20174;-59
2022/07/27 01:30:43;;;;;;;0.82;0.50;;;14.20;99.90;;;;;;5094693;28;20678;-60
2022/07/27 01:33:09;;;;;;;0.50;0.50;;;14.20;99.90;;;;;;5094589;28;20173;-60
2022/07/27 01:35:37;;;;;;;1.15;0.60;;;14.10;99.90;;;;;;5094469;28;20219;-60
2022/07/27 01:38:03;;;;;;;1.42;0.60;;;14.10;99.90;;;;;;5094235;28;20214;-60
2022/07/27 01:40:29;;;;;;;1.67;0.70;;;14.10;99.90;;;;;;5094233;28;20185;-59
2022/07/27 01:42:55;;;;;;;1.38;0.70;;;14.00;99.90;;;;;;5076054;28;20181;-60
2022/07/27 01:45:21;;;;;;;0.65;0.63;;;14.00;99.90;;;;;;5076102;28;20177;-60
2022/07/27 01:47:46;;;;;;;0.63;0.60;;;14.00;99.90;;;;;;5094275;28;20178;-60
2022/07/27 01:50:13;;;;;;;0.60;0.45;;;14.00;99.90;;;;;;5093979;28;20202;-60
2022/07/27 01:52:38;;;;;;;0.60;0.60;;;13.90;99.90;;;;;;5094125;28;20258;-60
2022/07/27 01:55:07;;;;;;;0.93;0.60;;;13.90;99.90;;;;;;5094051;28;20643;-59
2022/07/27 01:57:32;;;;;;;0.77;0.60;;;14.00;99.90;;;;;;5094061;28;20232;-60
2022/07/27 01:59:59;;;;;;;0.65;0.50;;;14.00;99.90;;;;;;5076065;28;20233;-60
2022/07/27 02:02:24;;;;;;;0.43;0.43;;;14.00;99.90;;;;;;5093860;28;20185;-60
2022/07/27 02:04:50;;;;;;;0.77;0.50;;;13.90;99.90;;;;;;5093908;28;20174;-60
2022/07/27 02:07:16;;;;;;;0.82;0.70;;;14.00;99.90;;;;;;5093835;28;20177;-59
2022/07/27 02:09:41;;;;;;;0.90;0.68;;;14.00;99.90;;;;;;5093644;28;20683;-60
2022/07/27 02:14:51;;;;;;;1.08;0.50;;;13.90;99.90;;;;;;5064651;28;20196;-60
2022/07/27 02:17:17;;;;;;;0.40;0.40;;;13.90;99.90;;;;;;5093682;28;20607;-60
2022/07/27 02:19:43;;;;;;;0.45;0.45;;;13.90;99.90;;;;;;5075679;28;20188;-60
2022/07/27 02:22:08;;;;;;;0.93;0.40;;;14.00;99.90;;;;;;5093577;28;20553;-61
2022/07/27 02:24:36;;;;;;;1.95;0.80;;;14.00;99.90;;;;;;5093730;28;20177;-61
2022/07/27 02:27:05;;;;;;;0.45;0.45;;;14.00;99.90;;;;;;5093786;28;20190;-60
2022/07/27 02:29:31;;;;;;;1.38;0.40;;;14.00;99.90;;;;;;5058698;28;20181;-60
2022/07/27 02:31:57;;;;;;;0.40;0.32;;;13.90;99.90;;;;;;5042211;28;20174;-60
2022/07/27 02:34:23;;;;;;;0.70;0.70;;;13.90;99.90;;;;;;5093566;28;20185;-60
2022/07/27 02:36:48;;;;;;;0.60;0.60;;;13.90;99.90;;;;;;5093320;28;20197;-60
2022/07/27 02:39:14;;;;;;;0.50;0.40;;;13.80;99.90;;;;;;5093452;28;20208;-60
2022/07/27 02:41:40;;;;;;;0.73;0.52;;;13.80;99.90;;;;;;5093308;28;20170;-59
2022/07/27 02:44:05;;;;;;;1.05;0.60;;;13.80;99.90;;;;;;5075447;28;20268;-60
2022/07/27 02:46:31;;;;;;;0.43;0.43;;;13.70;99.90;;;;;;5058798;28;20286;-60
2022/07/27 02:48:57;;;;;;;0.40;0.40;;;13.70;99.90;;;;;;5058574;28;20189;-60
2022/07/27 02:51:23;;;;;;;0.68;0.50;;;13.70;99.90;;;;;;5093282;28;20178;-60
2022/07/27 02:53:49;;;;;;;0.50;0.47;;;13.80;99.90;;;;;;5075528;28;20178;-60
2022/07/27 02:56:14;;;;;;;0.40;0.40;;;13.70;99.90;;;;;;5093368;28;20265;-60
2022/07/27 02:58:40;;;;;;;0.52;0.52;;;13.70;99.90;;;;;;5093033;28;20734;-60
2022/07/27 03:01:09;;;;;;;0.50;0.50;;;13.70;99.90;;;;;;5093186;28;20273;-60
2022/07/27 03:03:36;;;;;;;0.60;0.60;;;13.70;99.90;;;;;;5075236;28;20178;-60
2022/07/27 03:06:03;;;;;;;0.45;0.45;;;13.70;99.90;;;;;;5093092;28;20181;-60
2022/07/27 03:08:29;;;;;;;0.45;0.20;;;13.60;99.90;;;;;;5077232;28;20623;-60
2022/07/27 03:10:54;;;;;;;0.70;0.55;;;13.60;99.90;;;;;;5097157;28;20190;-60
2022/07/27 03:13:20;;;;;;;0.50;0.35;;;13.50;99.90;;;;;;5097530;28;20174;-60
2022/07/27 03:15:46;;;;;;;0.38;0.38;;;13.40;99.90;;;;;;5097071;28;20166;-60
2022/07/27 03:18:11;;;;;;;0.50;0.50;;;13.40;99.90;;;;;;5096959;28;20679;-60
2022/07/27 03:20:37;;;;;;;0.80;0.60;;;13.40;99.90;;;;;;5097006;28;20181;-61
2022/07/27 03:23:03;;;;;;;0.52;0.50;;;13.40;99.90;;;;;;5096868;28;20623;-60
2022/07/27 03:25:28;;;;;;;0.68;0.52;;;13.30;99.90;;;;;;5096815;28;20174;-60
2022/07/27 03:27:54;;;;;;;0.50;0.50;;;13.20;99.90;;;;;;5062414;28;20186;-61
2022/07/27 03:30:20;;;;;;;0.40;0.40;;;13.20;99.90;;;;;;5097014;28;20539;-60
2022/07/27 03:32:47;;;;;;;0.50;0.40;;;13.30;99.90;;;;;;5096728;28;20209;-62
2022/07/27 03:35:14;;;;;;;0.40;0.40;;;13.30;99.90;;;;;;5096641;28;20170;-59
2022/07/27 03:37:39;;;;;;;0.55;0.40;;;13.30;99.90;;;;;;5078894;28;20540;-60
2022/07/27 03:40:06;;;;;;;0.52;0.50;;;13.20;99.90;;;;;;5096608;28;20189;-60
2022/07/27 03:42:31;;;;;;;0.52;0.50;;;13.10;99.90;;;;;;5078416;28;20186;-60
2022/07/27 03:44:57;;;;;;;0.55;0.40;;;13.10;99.90;;;;;;5096619;28;20189;-60
2022/07/27 03:47:23;;;;;;;0.60;0.60;;;13.10;99.90;;;;;;5078396;28;20543;-60
2022/07/27 03:49:51;;;;;;;0.43;0.43;;;13.00;99.90;;;;;;5096345;28;20170;-60
2022/07/27 03:52:17;;;;;;;1.05;0.70;;;12.80;99.90;;;;;;5096595;28;20198;-60
2022/07/27 03:54:43;;;;;;;0.50;0.50;;;12.70;99.90;;;;;;5096480;28;20173;-62
2022/07/27 03:57:09;;;;;;;0.50;0.50;;;12.80;99.90;;;;;;5078607;28;20197;-60
2022/07/27 03:59:34;;;;;;;0.52;0.50;;;12.70;99.90;;;;;;5096359;28;20261;-60
2022/07/27 04:02:00;;;;;;;0.40;0.40;;;12.70;99.90;;;;;;5096200;28;20170;-60
2022/07/27 04:04:26;;;;;;;0.73;0.70;;;12.70;99.90;;;;;;5061433;28;20209;-60
2022/07/27 04:06:51;;;;;;;0.82;0.45;;;12.70;99.90;;;;;;5096119;28;20181;-60
2022/07/27 04:09:20;;;;;;;0.40;0.40;;;12.60;99.90;;;;;;5095891;28;20178;-60
2022/07/27 04:11:45;;;;;;;0.57;0.50;;;12.70;99.90;;;;;;5078221;28;20774;-60
2022/07/27 04:14:12;;;;;;;0.50;0.50;;;12.60;99.90;;;;;;5077944;28;20211;-60
2022/07/27 04:16:38;;;;;;;0.63;0.60;;;12.60;99.90;;;;;;5095918;28;20200;-61
2022/07/27 04:19:04;;;;;;;0.40;0.40;;;12.60;99.90;;;;;;5094630;28;20189;-59
2022/07/27 04:21:29;;;;;;;0.50;0.50;;;12.60;99.90;;;;;;5077779;28;20178;-60
2022/07/27 04:23:55;;;;;;;0.32;0.32;;;12.60;99.90;;;;;;5078057;28;20195;-60
2022/07/27 04:26:22;;;;;;;0.45;0.45;;;12.60;99.90;;;;;;5078217;28;20181;-60
2022/07/27 04:28:47;;;;;;;0.85;0.85;;;12.60;99.90;;;;;;5095737;28;20243;-60
2022/07/27 04:31:13;;;;;;;0.52;0.50;;;12.60;99.90;;;;;;5077739;28;20182;-60
2022/07/27 04:33:39;;;;;;;0.52;0.50;;;12.60;99.90;;;;;;5095577;28;20232;-61
2022/07/27 04:36:07;;;;;;;0.47;0.47;;;12.60;99.90;;;;;;5095926;28;20649;-60
2022/07/27 04:38:33;;;;;;;0.60;0.60;;;12.60;99.90;;;;;;5095531;28;20228;-60
2022/07/27 04:40:59;;;;;;;0.80;0.57;;;12.60;99.90;;;;;;5077449;28;20178;-60
2022/07/27 04:43:25;;;;;;;0.40;0.40;;;12.70;99.90;;;;;;5095567;28;20257;-61
2022/07/27 04:45:51;;;;;;;0.60;0.60;;;12.70;99.90;;;;;;5077351;28;20178;-61
2022/07/27 04:48:17;;;;;;;1.52;1.00;;;12.80;99.90;;;;;;5095245;28;20199;-60
2022/07/27 04:50:44;;;;;;;0.88;0.70;;;12.70;99.90;;;;;;5077369;28;20756;-60
2022/07/27 04:53:11;;;;;;;0.52;0.52;;;12.80;99.90;;;;;;5095353;28;20224;-60
2022/07/27 04:55:45;;;;;;;0.47;0.47;;;12.80;99.90;;;;;;5095392;28;20221;-61
2022/07/27 04:58:12;;;;;;;0.60;0.60;;;12.80;99.90;;;;;;5095058;28;20189;-61
2022/07/27 05:00:38;;;;;;;0.75;0.73;;;12.80;99.90;;;;;;5094962;28;20272;-60
2022/07/27 05:03:04;;;;;;;0.70;0.70;;;12.90;99.90;;;;;;5095219;28;20189;-60
2022/07/27 05:05:30;;;;;;;0.52;0.52;;;13.00;99.90;;;;;;5095091;28;20181;-61
2022/07/27 05:07:56;;;;;;;0.68;0.68;;;13.10;99.90;;;;;;5095006;28;20173;-60
2022/07/27 05:10:22;;;;;;;0.75;0.52;;;13.10;99.90;;;;;;5094796;28;20197;-60
2022/07/27 05:12:50;;;;;;;0.57;0.57;;;13.20;99.90;;;;;;5076876;28;20170;-61
2022/07/27 05:15:17;;;;;;;0.43;0.43;;;13.20;99.90;;;;;;5095019;28;20178;-60
2022/07/27 05:17:43;;;;;;;0.90;0.90;;;13.30;99.90;;;;;;5094837;28;20205;-62
2022/07/27 05:20:09;;;;;;;0.68;0.40;;;13.30;99.90;;;;;;5059916;28;20201;-63
2022/07/27 05:22:35;;;;;;;0.50;0.50;;;13.40;99.90;;;;;;5094691;28;20174;-62
2022/07/27 05:25:01;;;;;;;0.63;0.50;;;13.50;99.90;;;;;;5076626;28;20247;-63
2022/07/27 05:27:27;;;;;;;0.70;0.70;;;13.60;99.90;;;;;;5094621;28;20628;-63
2022/07/27 05:29:53;;;;;;;0.60;0.50;;;13.60;99.90;;;;;;5059666;28;20264;-58
2022/07/27 05:32:18;;;;;;;0.80;0.70;;;13.70;99.90;;;;;;5094084;28;20170;-63
2022/07/27 05:34:45;;;;;;;0.30;0.30;;;13.80;99.90;;;;;;5076298;28;20178;-63
2022/07/27 05:37:11;;;;;;;1.95;0.80;;;13.90;99.90;;;;;;5076452;28;20201;-66
2022/07/27 05:39:37;;;;;;;0.43;0.40;;;14.00;99.90;;;;;;5094641;28;20178;-66
2022/07/27 05:42:04;;;;;;;0.60;0.60;;;14.10;99.90;;;;;;5076066;28;20167;-66
2022/07/27 05:44:30;;;;;;;0.45;0.45;;;14.20;99.90;;;;;;5094008;28;20302;-66
2022/07/27 05:46:55;;;;;;;1.20;0.90;;;14.30;99.90;;;;;;5094254;28;20612;-67
2022/07/27 05:49:21;;;;;;;0.60;0.60;;;14.40;99.90;;;;;;5076167;28;20635;-63
2022/07/27 05:51:47;;;;;;;0.50;0.50;;;14.50;99.90;;;;;;5076047;28;20173;-67
2022/07/27 05:54:13;;;;;;;0.55;0.55;;;14.60;99.90;;;;;;5075897;28;20181;-67
2022/07/27 05:56:40;;;;;;;0.77;0.70;;;14.60;99.90;;;;;;5093965;28;20239;-67
2022/07/27 05:59:06;;;;;;;0.90;0.60;;;14.70;99.90;;;;;;5093774;28;20264;-67
2022/07/27 06:01:32;;;;;;;0.60;0.60;;;14.80;99.90;;;;;;5071651;28;20261;-67
2022/07/27 06:03:57;;;;;;;0.50;0.50;;;14.90;99.90;;;;;;5075241;28;20174;-67
2022/07/27 06:09:07;;;;;;;0.25;0.25;;;14.90;99.90;;;;;;5078660;28;20208;-67
2022/07/27 06:11:33;;;;;;;0.60;0.60;;;14.90;99.90;;;;;;5093208;28;20710;-67
2022/07/27 06:13:59;;;;;;;1.42;0.93;;;14.90;99.90;;;;;;5093586;28;20174;-67
2022/07/27 06:16:25;;;;;;;1.55;0.50;;;14.90;99.90;;;;;;5093331;28;20269;-66
2022/07/27 06:18:50;;;;;;;0.73;0.50;;;15.00;99.90;;;;;;5093253;28;20235;-67
2022/07/27 06:21:16;;;;;;;0.60;0.55;;;14.90;99.90;;;;;;5058696;28;20182;-67
2022/07/27 06:23:42;;;;;;;0.40;0.40;;;15.00;99.90;;;;;;5075318;28;20174;-67
2022/07/27 06:26:08;;;;;;;0.30;0.30;;;15.00;99.90;;;;;;5092053;28;20539;-65
2022/07/27 06:28:33;;;;;;;0.40;0.40;;;15.00;99.90;;;;;;5073023;28;20193;-67
2022/07/27 06:30:59;;;;;;;0.93;0.40;;;15.20;99.90;;;;;;5086347;28;20206;-67
2022/07/27 06:33:28;;;;;;;0.40;0.40;;;15.30;99.90;;;;;;5038721;28;20175;-66
2022/07/27 06:35:58;;;;;;;0.20;0.20;;;15.30;99.90;;;;;;5038954;28;20186;-67
2022/07/27 06:38:24;;;;;;;0.32;0.32;;;15.30;99.90;;;;;;5055029;28;20197;-67
2022/07/27 06:40:53;;;;;;;0.30;0.30;;;15.30;99.90;;;;;;5072934;28;20193;-66
2022/07/27 06:43:26;;;;;;;0.40;0.40;;;15.40;99.90;;;;;;5072585;28;20262;-66
2022/07/27 06:45:57;;;;;;;0.40;0.40;;;15.60;99.90;;;;;;5055251;28;20182;-67
2022/07/27 06:48:23;;;;;;;0.30;0.30;;;15.70;99.90;;;;;;5072862;28;20281;-67
2022/07/27 06:50:49;;;;;;;0.73;0.70;;;15.80;99.90;;;;;;5078823;28;20601;-66
2022/07/27 06:53:15;;;;;;;0.43;0.43;;;16.00;99.90;;;;;;5075213;28;20696;-66
2022/07/27 06:55:41;;;;;;;0.40;0.40;;;16.10;99.90;;;;;;5093110;28;20170;-65
2022/07/27 06:58:07;;;;;;;0.50;0.50;;;16.20;99.90;;;;;;5093098;28;20254;-66
2022/07/27 07:00:32;;;;;;;0.38;0.30;;;16.30;99.90;;;;;;5058754;28;20199;-66
2022/07/27 07:03:01;;;;;;;0.40;0.40;;;16.30;99.90;;;;;;5093151;28;20257;-66
2022/07/27 07:05:31;;;;;;;0.28;0.28;;;16.40;99.90;;;;;;5092682;28;20228;-66
2022/07/27 07:07:58;;;;;;;0.38;0.35;;;16.50;99.90;;;;;;5074738;28;20224;-66
2022/07/27 07:10:24;;;;;;;0.30;0.30;;;16.50;99.90;;;;;;5093022;28;20217;-66
2022/07/27 07:12:56;;;;;;;0.45;0.45;;;16.60;99.90;;;;;;5075188;28;20577;-66
2022/07/27 07:15:25;;;;;;;0.32;0.32;;;16.50;99.90;;;;;;5092862;28;20635;-66
2022/07/27 07:17:51;;;;;;;0.40;0.40;;;16.40;99.90;;;;;;5092775;28;20639;-66
2022/07/27 07:20:17;;;;;;;1.27;0.38;;;16.40;99.90;;;;;;5092672;28;20663;-66
2022/07/27 07:22:42;;;;;;;0.30;0.30;;;16.70;99.90;;;;;;5093112;28;20178;-66
2022/07/27 07:25:08;;;;;;;0.35;0.35;;;17.00;99.90;;;;;;5074282;28;20178;-65
2022/07/27 07:27:34;;;;;;;0.93;0.30;;;17.40;99.90;;;;;;5092912;28;20189;-65
2022/07/27 07:30:00;;;;;;;0.30;0.30;;;17.60;99.90;;;;;;5092839;28;20166;-65
2022/07/27 07:32:26;;;;;;;0.22;0.22;;;17.70;99.90;;;;;;5092917;28;20228;-66
2022/07/27 07:34:52;;;;;;;0.85;0.60;;;17.80;99.90;;;;;;5074687;28;20170;-65
2022/07/27 07:37:18;;;;;;;0.50;0.40;;;17.70;99.90;;;;;;5092970;28;20209;-66
2022/07/27 07:39:45;;;;;;;0.20;0.20;;;17.80;99.90;;;;;;5074998;28;20197;-66
2022/07/27 07:42:12;;;;;;;0.22;0.22;;;17.40;99.90;;;;;;5074996;28;20632;-66
2022/07/27 07:44:37;;;;;;;0.28;0.28;;;17.50;99.90;;;;;;5074890;28;20299;-66
2022/07/27 07:47:04;;;;;;;0.77;0.40;;;17.60;99.90;;;;;;5074917;28;20637;-66
2022/07/27 07:49:29;;;;;;;0.30;0.30;;;17.90;99.90;;;;;;5092713;28;20209;-66
2022/07/27 07:51:55;;;;;;;0.20;0.20;;;17.90;99.90;;;;;;5074727;28;20204;-65
2022/07/27 07:54:21;;;;;;;0.20;0.20;;;18.00;99.90;;;;;;5094712;28;20174;-66
2022/07/27 07:56:47;;;;;;;0.20;0.20;;;18.20;99.90;;;;;;5061815;28;20174;-66
2022/07/27 07:59:13;;;;;;;1.45;0.22;;;18.10;99.90;;;;;;5096245;28;20174;-64
2022/07/27 08:01:39;;;;;;;0.30;0.30;;;18.10;99.90;;;;;;5078366;28;20181;-66
2022/07/27 08:04:05;;;;;;;0.20;0.20;;;18.20;99.90;;;;;;5096130;28;20170;-66
2022/07/27 08:06:31;;;;;;;0.40;0.30;;;18.00;99.90;;;;;;5096246;28;20181;-66
2022/07/27 08:08:57;;;;;;;0.32;0.32;;;18.30;99.90;;;;;;5096571;28;20182;-66
2022/07/27 08:11:23;;;;;;;0.20;0.20;;;18.50;99.90;;;;;;5095970;28;20186;-66
2022/07/27 08:13:49;;;;;;;0.20;0.20;;;18.40;99.90;;;;;;5096115;28;20177;-64
2022/07/27 08:16:15;;;;;;;0.60;0.60;;;18.20;99.90;;;;;;5077872;28;20178;-66
2022/07/27 08:18:41;;;;;;;0.38;0.38;;;18.20;99.90;;;;;;5095746;28;20201;-66
2022/07/27 08:21:07;;;;;;;1.35;0.73;;;18.40;99.90;;;;;;5095862;28;20178;-66
2022/07/27 08:23:33;;;;;;;0.28;0.28;;;18.80;99.90;;;;;;5095925;28;20170;-65
2022/07/27 08:25:58;;;;;;;0.40;0.40;;;19.20;99.90;;;;;;5095801;28;20224;-66
2022/07/27 08:28:25;;;;;;;0.20;0.20;;;19.30;99.90;;;;;;5095638;28;20516;-63
2022/07/27 08:30:51;;;;;;;0.30;0.30;;;19.30;99.90;;;;;;5095664;28;20170;-65
2022/07/27 08:33:17;;;;;;;0.28;0.28;;;19.40;99.90;;;;;;5077494;28;20627;-66
2022/07/27 08:35:44;;;;;;;0.30;0.30;;;19.50;99.90;;;;;;5077778;28;20174;-66
2022/07/27 08:38:10;;;;;;;0.50;0.35;;;19.60;99.90;;;;;;5095437;28;20208;-66
2022/07/27 08:40:37;;;;;;;0.30;0.30;;;19.40;99.90;;;;;;5077101;28;20190;-66
2022/07/27 08:43:04;;;;;;;0.20;0.20;;;19.20;99.90;;;;;;5077355;28;20174;-66
2022/07/27 08:45:30;;;;;;;0.38;0.38;;;19.30;99.90;;;;;;5095379;28;20174;-65
2022/07/27 08:47:56;;;;;;;0.40;0.40;;;19.70;99.90;;;;;;5095564;28;20204;-65
2022/07/27 08:50:23;;;;;;;0.20;0.20;;;19.90;98.90;;;;;;5077338;28;20178;-65
2022/07/27 08:52:54;;;;;;;0.30;0.30;;;20.20;98.80;;;;;;5077273;28;20174;-64
2022/07/27 08:55:20;;;;;;;0.65;0.40;;;19.80;98.30;;;;;;5095360;28;20173;-66
2022/07/27 08:57:46;;;;;;;0.40;0.40;;;19.40;99.40;;;;;;5077264;28;20571;-66
2022/07/27 09:00:12;;;;;;;0.20;0.20;;;19.20;99.50;;;;;;5059657;28;20243;-67
2022/07/27 09:02:40;;;;;;;0.32;0.32;;;19.40;99.90;;;;;;5077302;28;20170;-65
2022/07/27 09:05:10;;;;;;;1.25;0.22;;;19.50;99.90;;;;;;5094562;28;20182;-66
2022/07/27 09:07:36;;;;;;;0.40;0.28;;;19.30;99.40;;;;;;5077498;28;20181;-66
2022/07/27 09:10:03;;;;;;;0.28;0.28;;;19.20;99.40;;;;;;5095028;28;20181;-65
2022/07/27 09:12:31;;;;;;;1.92;0.57;;;19.00;99.90;;;;;;5094750;28;20185;-66
2022/07/27 09:15:23;;;;;;;0.60;0.60;;;19.10;99.30;;;;;;5094707;28;20539;-65
2022/07/27 09:17:49;;;;;;;0.30;0.30;;;19.40;99.90;;;;;;5090228;28;20217;-65
2022/07/27 09:20:18;;;;;;;0.30;0.25;;;20.00;99.10;;;;;;5094537;28;20658;-66
2022/07/27 09:22:54;;;;;;;0.38;0.38;;;20.50;98.80;;;;;;5076471;28;20760;-66
2022/07/27 09:25:29;;;;;;;0.70;0.43;;;20.80;97.80;;;;;;5094507;28;20165;-65
2022/07/27 09:27:57;;;;;;;0.28;0.20;;;20.90;97.10;;;;;;5094789;28;20507;-65
2022/07/27 09:30:24;;;;;;;0.45;0.30;;;21.00;97.30;;;;;;5094638;28;20170;-65
2022/07/27 09:32:57;;;;;;;0.20;0.20;;;21.30;97.00;;;;;;5094560;28;20168;-67
2022/07/27 09:35:26;;;;;;;0.30;0.30;;;21.50;96.30;;;;;;5094578;28;20178;-66
2022/07/27 09:37:52;;;;;;;0.60;0.50;;;21.70;97.40;;;;;;5076169;28;20205;-65
2022/07/27 09:40:21;;;;;;;1.50;0.30;;;21.80;96.10;;;;;;5076461;28;20268;-65
2022/07/27 09:42:47;;;;;;;0.50;0.50;;;21.10;96.00;;;;;;5094422;28;20163;-65
2022/07/27 09:45:34;;;;;;;0.38;0.38;;;21.00;97.00;;;;;;5094351;28;20243;-64
2022/07/27 09:48:11;;;;;;;0.65;0.50;;;21.10;97.10;;;;;;5094177;28;20170;-62
2022/07/27 09:50:40;;;;;;;0.82;0.40;;;21.00;97.40;;;;;;5094379;28;20172;-62
2022/07/27 09:53:23;;;;;;;0.73;0.38;;;21.00;96.60;;;;;;5094222;28;20508;-64
2022/07/27 09:56:05;;;;;;;0.73;0.30;;;20.60;97.00;;;;;;5094141;28;20497;-64
2022/07/27 09:58:45;;;;;;;0.52;0.50;;;20.30;97.30;;;;;;5093895;28;20206;-65
2022/07/27 10:01:22;;;;;;;0.93;0.40;;;20.00;97.00;;;;;;5094299;28;20208;-65
2022/07/27 10:03:50;;;;;;;0.47;0.43;;;19.80;97.20;;;;;;5094199;28;20174;-66
2022/07/27 10:06:16;;;;;;;0.57;0.40;;;19.90;97.40;;;;;;5093918;28;20173;-65
2022/07/27 10:08:44;;;;;;;2.03;0.50;;;20.00;96.80;;;;;;5093910;28;20184;-65
2022/07/27 10:11:11;;;;;;;0.65;0.50;;;20.10;97.60;;;;;;5093875;28;20190;-65
2022/07/27 10:13:38;;;;;;;0.80;0.60;;;19.90;98.00;;;;;;5075728;28;20178;-65
2022/07/27 10:16:05;;;;;;;0.30;0.30;;;19.60;97.50;;;;;;5093910;28;20162;-65
2022/07/27 10:19:16;;;;;;;0.40;0.40;;;19.80;98.40;;;;;;5074633;28;20697;-65
2022/07/27 10:21:49;;;;;;;1.42;0.40;;;19.80;98.10;;;;;;5093590;28;20185;-66
2022/07/27 10:24:38;;;;;;;0.35;0.30;;;19.60;98.20;;;;;;5093794;28;20170;-65
2022/07/27 10:27:25;;;;;;;1.00;0.52;;;19.50;98.80;;;;;;5093856;28;20182;-66
2022/07/27 10:29:51;;;;;;;1.25;0.52;;;19.60;99.30;;;;;;5092288;28;20182;-66
2022/07/27 10:32:31;;;;;;;0.38;0.38;;;19.70;98.40;;;;;;5093789;28;20515;-66
2022/07/27 10:34:57;;;;;;;0.35;0.35;;;19.70;98.20;;;;;;5093576;28;20185;-66
2022/07/27 10:37:25;;;;;;;0.40;0.40;;;19.70;98.90;;;;;;5093434;28;20197;-67
2022/07/27 10:42:51;;;;;;;0.70;0.40;;;19.90;98.20;;;;;;5093411;28;20642;-62
2022/07/27 10:45:18;;;;;;;0.47;0.47;;;20.10;98.20;;;;;;5076173;28;20619;-66
2022/07/27 10:47:52;;;;;;;1.02;0.65;;;20.20;97.50;;;;;;5093578;28;20536;-66
2022/07/27 10:50:21;;;;;;;0.95;0.60;;;20.30;97.40;;;;;;5075238;28;20618;-66
2022/07/27 10:52:50;;;;;;;0.45;0.45;;;20.30;97.20;;;;;;5093296;28;20169;-66
2022/07/27 10:55:31;;;;;;;0.95;0.50;;;20.10;98.10;;;;;;5093365;28;20170;-66
2022/07/27 10:58:09;;;;;;;0.50;0.50;;;20.00;97.50;;;;;;5093220;28;20692;-66
2022/07/27 11:00:49;;;;;;;1.02;0.60;;;19.90;97.10;;;;;;5093233;28;20185;-66
2022/07/27 11:03:25;;;;;;;0.82;0.82;;;20.30;97.00;;;;;;5093180;28;20180;-66
2022/07/27 11:06:06;;;;;;;0.50;0.50;;;20.90;96.00;;;;;;5093927;28;20184;-66
2022/07/27 11:08:37;;;;;;;0.47;0.47;;;21.50;96.60;;;;;;5093161;28;20186;-66
2022/07/27 11:11:05;;;;;;;0.80;0.50;;;21.70;96.50;;;;;;5093453;28;20239;-66
2022/07/27 11:13:31;;;;;;;0.85;0.40;;;21.80;95.60;;;;;;5093040;28;20252;-66
2022/07/27 11:16:00;;;;;;;0.30;0.30;;;21.70;94.00;;;;;;5093003;28;20257;-66
2022/07/27 11:18:26;;;;;;;0.40;0.40;;;22.00;94.40;;;;;;5093193;28;20204;-65
2022/07/27 11:20:52;;;;;;;0.40;0.40;;;22.30;94.00;;;;;;5075057;28;20235;-66
2022/07/27 11:23:22;;;;;;;0.50;0.40;;;22.70;93.20;;;;;;5075259;28;20620;-66
2022/07/27 11:26:00;;;;;;;0.30;0.30;;;22.30;92.50;;;;;;5074853;28;20182;-66
2022/07/27 11:28:30;;;;;;;0.47;0.47;;;22.00;92.80;;;;;;5093288;28;20522;-65
2022/07/27 11:31:00;;;;;;;0.40;0.40;;;21.80;93.20;;;;;;5097150;28;20169;-66
2022/07/27 11:33:26;;;;;;;0.63;0.40;;;21.60;92.80;;;;;;5097240;28;20173;-65
2022/07/27 11:35:54;;;;;;;0.22;0.20;;;21.20;93.00;;;;;;5079032;28;20185;-66
2022/07/27 11:38:20;;;;;;;0.50;0.50;;;20.80;93.80;;;;;;5078707;28;20197;-66
2022/07/27 11:40:51;;;;;;;0.25;0.25;;;20.50;94.10;;;;;;5096647;28;20178;-66
2022/07/27 11:43:33;;;;;;;0.35;0.35;;;20.30;94.40;;;;;;5079012;28;20174;-66
2022/07/27 11:46:18;;;;;;;0.60;0.50;;;20.20;94.10;;;;;;5096686;28;20699;-66
2022/07/27 11:49:06;;;;;;;0.32;0.32;;;19.90;93.60;;;;;;5096560;28;20496;-57
2022/07/27 11:51:37;;;;;;;0.50;0.50;;;19.70;93.80;;;;;;5096697;28;20600;-52
2022/07/27 11:54:08;;;;;;;1.65;0.30;;;19.90;94.20;;;;;;5096618;28;20249;-55
2022/07/27 11:56:37;;;;;;;0.47;0.40;;;20.20;94.50;;;;;;5096756;28;20196;-55
2022/07/27 11:59:10;;;;;;;0.30;0.30;;;20.60;93.00;;;;;;5096127;28;20197;-54
2022/07/27 12:01:45;;;;;;;1.10;0.30;;;21.00;92.60;;;;;;5078161;28;20231;-56
2022/07/27 12:04:32;;;;;;;0.30;0.30;;;21.60;92.60;;;;;;5096661;28;20591;-64
2022/07/27 12:07:03;;;;;;;1.05;0.30;;;21.90;90.90;;;;;;5096249;28;20166;-64
2022/07/27 12:09:32;;;;;;;1.80;0.40;;;22.10;90.20;;;;;;5096162;28;20174;-64
2022/07/27 12:11:59;;;;;;;0.22;0.22;;;22.40;90.00;;;;;;5095838;28;20185;-63
2022/07/27 12:14:28;;;;;;;0.50;0.40;;;22.30;89.50;;;;;;5077921;28;20174;-63
2022/07/27 12:17:06;;;;;;;0.65;0.40;;;22.50;89.90;;;;;;5096004;28;20181;-64
2022/07/27 12:19:32;;;;;;;0.32;0.32;;;22.80;88.10;;;;;;5096043;28;20280;-64
2022/07/27 12:21:58;;;;;;;0.43;0.28;;;22.80;87.90;;;;;;5077858;28;20248;-66
2022/07/27 12:24:38;;;;;;;0.65;0.30;;;22.60;88.00;;;;;;5077721;28;20204;-64
2022/07/27 12:27:14;;;;;;;0.40;0.40;;;22.50;89.00;;;;;;5095965;28;20639;-64
2022/07/27 12:30:03;;;;;;;0.57;0.30;;;22.70;89.60;;;;;;5077888;28;20627;-64
2022/07/27 12:32:32;;;;;;;0.50;0.22;;;22.70;87.90;;;;;;5095783;28;20166;-63
2022/07/27 12:34:58;;;;;;;0.32;0.32;;;22.40;87.00;;;;;;5095465;28;20170;-57
2022/07/27 12:37:29;;;;;;;0.30;0.20;;;22.30;90.10;;;;;;5095702;28;20216;-56
2022/07/27 12:39:55;;;;;;;0.45;0.30;;;21.80;88.60;;;;;;5076939;28;20188;-54
2022/07/27 12:42:34;;;;;;;0.50;0.30;;;22.00;89.40;;;;;;5077097;28;20177;-55
2022/07/27 12:45:15;;;;;;;0.73;0.60;;;22.50;89.10;;;;;;5095617;28;20523;-54
2022/07/27 12:47:41;;;;;;;0.20;0.20;;;22.30;86.90;;;;;;5095601;28;20178;-52
2022/07/27 12:50:09;;;;;;;0.15;0.15;;;22.00;88.40;;;;;;5095509;28;20670;-54
2022/07/27 12:52:40;;;;;;;0.10;0.10;;;21.50;88.10;;;;;;5095437;28;20201;-55
2022/07/27 12:55:07;;;;;;;0.20;0.10;;;21.20;89.50;;;;;;5095650;28;20170;-55
2022/07/27 12:57:33;;;;;;;0.60;0.35;;;21.20;90.80;;;;;;5095154;28;20208;-55
2022/07/27 13:00:08;;;;;;;0.20;0.20;;;21.30;90.10;;;;;;5095010;28;20178;-53
2022/07/27 13:02:34;;;;;;;0.50;0.30;;;21.20;88.50;;;;;;5095292;28;20195;-56